createdAt,value
2022-11-12T00:01:16.871Z,76.76532895809972
2022-11-12T00:11:16.218Z,76.53356384864382
2022-11-12T00:21:16.081Z,77.13110366747591
2022-11-12T00:31:16.168Z,77.39887436548369
2022-11-12T00:41:16.035Z,76.86836302766264
2022-11-12T00:51:16.223Z,77.05312145522959
2022-11-12T01:01:17.081Z,77.89384106048585
2022-11-12T01:11:19.681Z,77.6793739717788
2022-11-12T01:21:16.136Z,77.52314763329956
2022-11-12T01:31:18.732Z,77.93761013794979
2022-11-12T01:41:19.376Z,78.15697656860196
2022-11-12T01:51:19.590Z,78.40325061273226
2022-11-12T02:01:16.544Z,78.52537896388147
2022-11-12T02:11:19.037Z,77.48445596998361
2022-11-12T02:21:19.256Z,77.68482545612184
2022-11-12T02:31:16.142Z,77.42211795450902
2022-11-12T02:41:17.004Z,78.160675755548
2022-11-12T02:51:15.860Z,78.3946199690124
2022-11-12T03:01:16.860Z,78.85955727872565
2022-11-12T03:11:16.665Z,80.38416681551101
2022-11-12T03:21:17.110Z,79.05519258613425
2022-11-12T03:31:16.350Z,80.40060282738749
2022-11-12T03:41:16.822Z,81.8819197115566
2022-11-12T03:51:18.050Z,80.8361034977125
2022-11-12T04:01:17.176Z,81.16030712103459
2022-11-12T04:11:16.555Z,79.93951588069085
2022-11-12T04:22:22.006Z,78.375789661141
2022-11-12T04:31:16.775Z,77.00616181261066
2022-11-12T04:52:21.734Z,77.16198096962937
2022-11-12T05:01:16.031Z,78.0094411666329
2022-11-12T05:11:17.534Z,77.30051293176108
2022-11-12T05:31:16.935Z,78.08958056238592
2022-11-12T05:41:19.891Z,79.66232250658247
2022-11-12T05:51:16.260Z,80.12636574185925
2022-11-12T06:01:16.217Z,79.6202755927262
2022-11-12T06:11:17.330Z,78.00582013923422
2022-11-12T06:21:24.000Z,77.1840803353886
2022-11-12T06:31:18.042Z,77.61636905567737
2022-11-12T06:41:16.021Z,76.64434782031829
2022-11-12T06:51:19.599Z,77.45381926191446
2022-11-12T07:01:17.573Z,76.25565325125055
2022-11-12T07:11:17.887Z,75.04856639264682
2022-11-12T07:21:18.356Z,75.11678793778471
2022-11-12T07:31:18.331Z,75.2930402011752
2022-11-12T07:41:18.500Z,73.28725178476527
2022-11-12T07:51:19.124Z,75.68700742671642
2022-11-12T08:01:23.999Z,75.78002630533992
2022-11-12T08:11:15.882Z,73.89912690247839
2022-11-12T08:21:18.744Z,72.54379534146432
2022-11-12T08:31:19.171Z,71.26421153849965
2022-11-12T08:41:16.839Z,68.03084730749664
2022-11-12T08:51:16.263Z,75.9580416433185
2022-11-12T09:01:16.282Z,74.24744213154426
2022-11-12T09:11:16.220Z,74.6883436365442
2022-11-12T09:21:18.406Z,76.51010830553905
2022-11-12T09:31:16.493Z,76.02833722881415
2022-11-12T09:41:25.106Z,74.57130475327409
2022-11-12T09:51:24.620Z,74.21167433387268
2022-11-12T10:01:23.120Z,73.82953623573468
2022-11-12T10:11:44.964Z,72.90683608064369
2022-11-12T10:21:30.001Z,73.56006281302133
2022-11-12T10:31:19.714Z,74.64453714277396
2022-11-12T10:41:20.008Z,76.00928892174036
2022-11-12T10:51:25.828Z,76.23492849307951
2022-11-12T11:01:17.580Z,76.77729151006572
2022-11-12T11:11:20.747Z,75.9428547871372
2022-11-12T11:21:29.049Z,77.58118762551629
2022-11-12T11:41:30.934Z,77.46290209725878
2022-11-12T11:51:35.721Z,80.65215961838193
2022-11-12T12:01:25.692Z,81.81515936986762
2022-11-12T12:11:21.754Z,80.0141480597424
2022-11-12T12:21:18.026Z,81.23422361558215
2022-11-12T12:31:21.205Z,79.67813499109452
2022-11-12T12:41:21.820Z,75.43770647156111
2022-11-12T12:51:16.647Z,71.19341973962834
2022-11-12T13:01:30.722Z,73.17084623861044
2022-11-12T13:13:01.556Z,77.13881695526844
2022-11-12T13:21:18.582Z,76.89636018342223
2022-11-12T13:31:26.753Z,73.78126327677153
2022-11-12T13:41:20.710Z,66.93598630792263
2022-11-12T13:51:28.601Z,67.3256727759293
2022-11-12T14:01:20.597Z,65.60434969511736
2022-11-12T14:11:47.992Z,58.54035927146042
2022-11-12T14:21:17.390Z,60.4835820820725
2022-11-12T14:31:24.273Z,65.44259705232163
2022-11-12T14:41:20.190Z,65.2301278225422
2022-11-12T14:51:21.786Z,59.75185731589794
2022-11-12T15:01:55.723Z,61.5262183912104
2022-11-12T15:11:24.921Z,60.67154156031274
2022-11-12T15:21:22.790Z,60.47877072450136
2022-11-12T15:31:19.569Z,62.09163150251402
2022-11-12T15:41:24.011Z,62.78950084735009
2022-11-12T15:51:16.851Z,58.47605841520541
2022-11-12T16:01:16.919Z,59.41841919538625
2022-11-12T16:11:36.101Z,59.3936685939344
2022-11-12T16:21:20.689Z,60.86947969761974
2022-11-12T16:31:17.192Z,58.8197836144091
2022-11-12T16:41:16.388Z,57.662751605740226
2022-11-12T16:51:19.551Z,55.45827697568447
2022-11-12T17:01:24.387Z,53.37425141473546
2022-11-12T17:11:17.113Z,52.68545772874621
2022-11-12T17:21:18.229Z,52.726309640826656
2022-11-12T17:31:19.106Z,53.99720883562507
2022-11-12T17:41:16.599Z,55.09591247482613
2022-11-12T17:51:19.064Z,56.282960811402326
2022-11-12T18:01:20.372Z,56.18857030600534
2022-11-12T18:11:16.726Z,55.170287957167055
2022-11-12T18:21:16.704Z,54.43167015336648
2022-11-12T18:31:16.052Z,54.48113782546858
2022-11-12T18:41:19.100Z,55.57158086817251
2022-11-12T18:51:18.664Z,55.230451033476804
2022-11-12T19:01:19.220Z,57.04257335269259
2022-11-12T19:11:22.242Z,58.53656136447155
2022-11-12T19:21:21.254Z,59.58268648111474
2022-11-12T19:31:18.030Z,59.92315101878543
2022-11-12T19:41:19.903Z,59.91676847329326
2022-11-12T19:51:18.583Z,60.432581400321304
2022-11-12T20:01:17.807Z,60.13284171769917
2022-11-12T20:11:16.991Z,60.59891510571216
2022-11-12T20:21:16.867Z,60.8671897828395
2022-11-12T20:31:19.111Z,61.35340811653293
2022-11-12T20:41:18.860Z,62.04637990240584
2022-11-12T20:51:24.327Z,61.91607745400423
2022-11-12T21:01:19.190Z,62.33579617901644
2022-11-12T21:11:18.397Z,61.89254463608262
2022-11-12T21:21:18.538Z,63.45821806369075
2022-11-12T21:31:17.723Z,63.416178901008244
2022-11-12T21:41:18.037Z,63.821491970048186
2022-11-12T21:51:18.571Z,64.13169670436575
2022-11-12T22:01:19.536Z,64.00325563124686
2022-11-12T22:11:16.400Z,66.89785372850291
2022-11-12T22:21:18.824Z,66.43206479526896
2022-11-12T22:31:19.310Z,67.59257232802968
2022-11-12T22:41:18.276Z,67.74078268866869
2022-11-12T22:51:18.894Z,68.00075320658806
2022-11-12T23:01:19.555Z,68.99933750985514
2022-11-12T23:11:18.441Z,69.44548271683192
2022-11-12T23:21:18.898Z,70.02099834878516
2022-11-12T23:31:20.085Z,69.87782169994588
2022-11-12T23:41:19.111Z,69.42181094146756
2022-11-12T23:51:19.954Z,69.91397253483696
